sensor_id;sensor_type;location;lat;lon;timestamp;temperature;humidity
25154;DHT22;47555;51.038;6.280;2022-07-29T00:01:35;19.30;39.70
25154;DHT22;47555;51.038;6.280;2022-07-29T00:04:01;19.30;39.00
25154;DHT22;47555;51.038;6.280;2022-07-29T00:06:26;19.30;39.50
25154;DHT22;47555;51.038;6.280;2022-07-29T00:08:52;19.30;39.50
25154;DHT22;47555;51.038;6.280;2022-07-29T00:11:17;19.20;39.40
25154;DHT22;47555;51.038;6.280;2022-07-29T00:13:43;19.20;39.30
25154;DHT22;47555;51.038;6.280;2022-07-29T00:16:08;19.20;39.60
25154;DHT22;47555;51.038;6.280;2022-07-29T00:18:34;19.20;39.50
25154;DHT22;47555;51.038;6.280;2022-07-29T00:21:00;19.20;39.80
25154;DHT22;47555;51.038;6.280;2022-07-29T00:23:25;19.20;39.80
25154;DHT22;47555;51.038;6.280;2022-07-29T00:25:51;19.10;40.40
25154;DHT22;47555;51.038;6.280;2022-07-29T00:28:16;19.10;40.00
25154;DHT22;47555;51.038;6.280;2022-07-29T00:30:42;19.10;40.00
25154;DHT22;47555;51.038;6.280;2022-07-29T00:33:09;19.10;40.00
25154;DHT22;47555;51.038;6.280;2022-07-29T00:35:35;19.10;40.30
25154;DHT22;47555;51.038;6.280;2022-07-29T00:38:14;19.10;40.60
25154;DHT22;47555;51.038;6.280;2022-07-29T00:40:41;19.00;40.50
25154;DHT22;47555;51.038;6.280;2022-07-29T00:43:07;19.00;40.40
25154;DHT22;47555;51.038;6.280;2022-07-29T00:45:33;19.00;40.70
25154;DHT22;47555;51.038;6.280;2022-07-29T00:47:58;19.00;40.70
25154;DHT22;47555;51.038;6.280;2022-07-29T00:50:24;18.90;40.70
25154;DHT22;47555;51.038;6.280;2022-07-29T00:52:50;18.90;41.00
25154;DHT22;47555;51.038;6.280;2022-07-29T00:55:17;18.90;40.80
25154;DHT22;47555;51.038;6.280;2022-07-29T00:57:43;18.90;40.90
25154;DHT22;47555;51.038;6.280;2022-07-29T01:00:16;18.90;41.40
25154;DHT22;47555;51.038;6.280;2022-07-29T01:02:43;18.90;41.50
25154;DHT22;47555;51.038;6.280;2022-07-29T01:05:08;18.80;41.50
25154;DHT22;47555;51.038;6.280;2022-07-29T01:07:36;18.80;41.40
25154;DHT22;47555;51.038;6.280;2022-07-29T01:10:07;18.80;42.20
25154;DHT22;47555;51.038;6.280;2022-07-29T01:12:34;18.80;41.70
25154;DHT22;47555;51.038;6.280;2022-07-29T01:15:02;18.70;42.50
25154;DHT22;47555;51.038;6.280;2022-07-29T01:17:36;18.60;43.30
25154;DHT22;47555;51.038;6.280;2022-07-29T01:28:54;18.50;43.90
25154;DHT22;47555;51.038;6.280;2022-07-29T01:34:19;18.50;43.50
25154;DHT22;47555;51.038;6.280;2022-07-29T01:36:56;18.50;43.40
25154;DHT22;47555;51.038;6.280;2022-07-29T01:39:34;18.50;43.70
25154;DHT22;47555;51.038;6.280;2022-07-29T01:42:12;18.50;43.90
25154;DHT22;47555;51.038;6.280;2022-07-29T01:44:54;18.50;43.30
25154;DHT22;47555;51.038;6.280;2022-07-29T01:47:25;18.50;43.70
25154;DHT22;47555;51.038;6.280;2022-07-29T01:49:54;18.40;43.80
25154;DHT22;47555;51.038;6.280;2022-07-29T01:52:34;18.40;44.00
25154;DHT22;47555;51.038;6.280;2022-07-29T01:55:06;18.40;43.80
25154;DHT22;47555;51.038;6.280;2022-07-29T01:57:33;18.40;43.30
25154;DHT22;47555;51.038;6.280;2022-07-29T02:00:03;18.40;43.10
25154;DHT22;47555;51.038;6.280;2022-07-29T02:02:30;18.50;43.30
25154;DHT22;47555;51.038;6.280;2022-07-29T02:04:57;18.40;43.70
25154;DHT22;47555;51.038;6.280;2022-07-29T02:07:27;18.40;43.80
25154;DHT22;47555;51.038;6.280;2022-07-29T02:09:54;18.30;44.10
25154;DHT22;47555;51.038;6.280;2022-07-29T02:12:22;18.30;44.60
25154;DHT22;47555;51.038;6.280;2022-07-29T02:14:51;18.30;44.40
25154;DHT22;47555;51.038;6.280;2022-07-29T02:17:25;18.30;44.70
25154;DHT22;47555;51.038;6.280;2022-07-29T02:19:54;18.30;44.70
25154;DHT22;47555;51.038;6.280;2022-07-29T02:22:21;18.20;46.30
25154;DHT22;47555;51.038;6.280;2022-07-29T02:24:49;18.20;46.00
25154;DHT22;47555;51.038;6.280;2022-07-29T02:27:19;18.20;45.80
25154;DHT22;47555;51.038;6.280;2022-07-29T02:29:46;18.10;46.10
25154;DHT22;47555;51.038;6.280;2022-07-29T02:32:13;18.20;46.50
25154;DHT22;47555;51.038;6.280;2022-07-29T02:34:41;18.10;46.20
25154;DHT22;47555;51.038;6.280;2022-07-29T02:37:09;18.10;46.50
25154;DHT22;47555;51.038;6.280;2022-07-29T02:39:35;18.10;46.70
25154;DHT22;47555;51.038;6.280;2022-07-29T02:42:05;18.10;46.80
25154;DHT22;47555;51.038;6.280;2022-07-29T02:44:32;18.10;46.80
25154;DHT22;47555;51.038;6.280;2022-07-29T02:47:30;18.00;47.10
25154;DHT22;47555;51.038;6.280;2022-07-29T02:53:02;18.00;53.90
25154;DHT22;47555;51.038;6.280;2022-07-29T02:55:34;17.90;71.50
25154;DHT22;47555;51.038;6.280;2022-07-29T02:58:15;17.70;83.00
25154;DHT22;47555;51.038;6.280;2022-07-29T03:00:45;17.50;88.10
25154;DHT22;47555;51.038;6.280;2022-07-29T03:03:13;17.30;92.40
25154;DHT22;47555;51.038;6.280;2022-07-29T03:05:40;17.10;97.70
25154;DHT22;47555;51.038;6.280;2022-07-29T03:08:09;16.90;99.40
25154;DHT22;47555;51.038;6.280;2022-07-29T03:10:37;16.80;99.90
25154;DHT22;47555;51.038;6.280;2022-07-29T03:13:04;16.70;99.90
25154;DHT22;47555;51.038;6.280;2022-07-29T03:15:30;16.60;99.90
25154;DHT22;47555;51.038;6.280;2022-07-29T03:17:56;16.50;99.90
25154;DHT22;47555;51.038;6.280;2022-07-29T03:20:23;16.40;99.90
25154;DHT22;47555;51.038;6.280;2022-07-29T03:22:48;16.40;99.90
25154;DHT22;47555;51.038;6.280;2022-07-29T03:25:16;16.30;99.90
25154;DHT22;47555;51.038;6.280;2022-07-29T03:27:42;16.20;99.90
25154;DHT22;47555;51.038;6.280;2022-07-29T03:30:08;16.20;99.90
25154;DHT22;47555;51.038;6.280;2022-07-29T03:32:35;16.20;99.90
25154;DHT22;47555;51.038;6.280;2022-07-29T03:35:00;16.10;99.90
25154;DHT22;47555;51.038;6.280;2022-07-29T03:37:26;16.10;99.90
25154;DHT22;47555;51.038;6.280;2022-07-29T03:39:55;16.10;99.90
25154;DHT22;47555;51.038;6.280;2022-07-29T03:42:23;16.00;99.90
25154;DHT22;47555;51.038;6.280;2022-07-29T03:44:50;16.00;99.90
25154;DHT22;47555;51.038;6.280;2022-07-29T03:47:20;16.00;99.90
25154;DHT22;47555;51.038;6.280;2022-07-29T03:49:49;16.00;99.90
25154;DHT22;47555;51.038;6.280;2022-07-29T03:52:16;16.00;99.90
25154;DHT22;47555;51.038;6.280;2022-07-29T03:54:42;16.00;99.90
25154;DHT22;47555;51.038;6.280;2022-07-29T03:57:10;16.00;99.90
25154;DHT22;47555;51.038;6.280;2022-07-29T03:59:37;16.00;99.90
25154;DHT22;47555;51.038;6.280;2022-07-29T04:02:04;16.00;99.90
25154;DHT22;47555;51.038;6.280;2022-07-29T04:04:34;16.00;99.90
25154;DHT22;47555;51.038;6.280;2022-07-29T04:07:00;16.00;99.90
25154;DHT22;47555;51.038;6.280;2022-07-29T04:09:26;16.00;99.90
25154;DHT22;47555;51.038;6.280;2022-07-29T04:11:51;16.00;99.90
25154;DHT22;47555;51.038;6.280;2022-07-29T04:14:18;16.00;99.90
25154;DHT22;47555;51.038;6.280;2022-07-29T04:16:43;16.00;99.90
25154;DHT22;47555;51.038;6.280;2022-07-29T04:19:09;16.00;99.90
25154;DHT22;47555;51.038;6.280;2022-07-29T04:21:39;16.00;99.90
25154;DHT22;47555;51.038;6.280;2022-07-29T04:24:05;16.00;99.90
25154;DHT22;47555;51.038;6.280;2022-07-29T04:26:30;16.00;99.90
25154;DHT22;47555;51.038;6.280;2022-07-29T04:28:56;15.90;99.90
25154;DHT22;47555;51.038;6.280;2022-07-29T04:31:21;15.90;99.90
25154;DHT22;47555;51.038;6.280;2022-07-29T04:33:47;15.90;99.90
25154;DHT22;47555;51.038;6.280;2022-07-29T04:36:12;16.00;99.90
25154;DHT22;47555;51.038;6.280;2022-07-29T04:38:38;15.90;99.90
25154;DHT22;47555;51.038;6.280;2022-07-29T04:41:04;15.90;99.90
25154;DHT22;47555;51.038;6.280;2022-07-29T04:43:32;16.00;99.90
25154;DHT22;47555;51.038;6.280;2022-07-29T04:45:57;16.00;99.90
25154;DHT22;47555;51.038;6.280;2022-07-29T04:48:23;16.00;99.90
25154;DHT22;47555;51.038;6.280;2022-07-29T04:50:48;16.10;99.90
25154;DHT22;47555;51.038;6.280;2022-07-29T04:53:14;16.10;99.90
25154;DHT22;47555;51.038;6.280;2022-07-29T04:55:39;16.10;99.90
25154;DHT22;47555;51.038;6.280;2022-07-29T04:58:05;16.10;99.90
25154;DHT22;47555;51.038;6.280;2022-07-29T05:00:30;16.10;99.90
25154;DHT22;47555;51.038;6.280;2022-07-29T05:02:56;16.10;99.90
25154;DHT22;47555;51.038;6.280;2022-07-29T05:05:21;16.10;99.90
25154;DHT22;47555;51.038;6.280;2022-07-29T05:07:47;16.10;99.90
25154;DHT22;47555;51.038;6.280;2022-07-29T05:10:12;16.20;99.90
25154;DHT22;47555;51.038;6.280;2022-07-29T05:12:38;16.20;99.90
25154;DHT22;47555;51.038;6.280;2022-07-29T05:15:04;16.20;99.90
25154;DHT22;47555;51.038;6.280;2022-07-29T05:17:30;16.20;99.90
25154;DHT22;47555;51.038;6.280;2022-07-29T05:19:55;16.10;99.90
25154;DHT22;47555;51.038;6.280;2022-07-29T05:22:21;16.20;99.90
25154;DHT22;47555;51.038;6.280;2022-07-29T05:24:46;16.20;99.90
25154;DHT22;47555;51.038;6.280;2022-07-29T05:27:12;16.10;99.90
25154;DHT22;47555;51.038;6.280;2022-07-29T05:29:38;16.10;99.90
25154;DHT22;47555;51.038;6.280;2022-07-29T05:32:04;16.20;99.90
25154;DHT22;47555;51.038;6.280;2022-07-29T05:34:30;16.10;99.90
25154;DHT22;47555;51.038;6.280;2022-07-29T05:36:56;16.10;99.90
25154;DHT22;47555;51.038;6.280;2022-07-29T05:39:22;16.10;99.90
25154;DHT22;47555;51.038;6.280;2022-07-29T05:41:47;16.10;99.90
25154;DHT22;47555;51.038;6.280;2022-07-29T05:44:13;16.20;99.90
25154;DHT22;47555;51.038;6.280;2022-07-29T05:46:39;16.20;99.90
25154;DHT22;47555;51.038;6.280;2022-07-29T05:49:04;16.20;99.90
25154;DHT22;47555;51.038;6.280;2022-07-29T05:51:32;16.20;99.90
25154;DHT22;47555;51.038;6.280;2022-07-29T05:53:58;16.20;99.90
25154;DHT22;47555;51.038;6.280;2022-07-29T05:56:24;16.20;99.90
25154;DHT22;47555;51.038;6.280;2022-07-29T05:58:50;16.20;99.90
25154;DHT22;47555;51.038;6.280;2022-07-29T06:01:15;16.10;99.90
25154;DHT22;47555;51.038;6.280;2022-07-29T06:03:41;16.10;99.90
25154;DHT22;47555;51.038;6.280;2022-07-29T06:06:07;16.10;99.90
25154;DHT22;47555;51.038;6.280;2022-07-29T06:08:33;16.10;99.90
25154;DHT22;47555;51.038;6.280;2022-07-29T06:10:59;16.00;99.90
25154;DHT22;47555;51.038;6.280;2022-07-29T06:13:25;16.10;99.90
25154;DHT22;47555;51.038;6.280;2022-07-29T06:15:50;16.00;99.90
25154;DHT22;47555;51.038;6.280;2022-07-29T06:18:16;16.00;99.90
25154;DHT22;47555;51.038;6.280;2022-07-29T06:20:42;16.10;99.90
25154;DHT22;47555;51.038;6.280;2022-07-29T06:23:08;16.00;99.90
25154;DHT22;47555;51.038;6.280;2022-07-29T06:25:35;16.00;99.90
25154;DHT22;47555;51.038;6.280;2022-07-29T06:28:02;16.00;99.90
25154;DHT22;47555;51.038;6.280;2022-07-29T06:30:27;16.00;99.90
25154;DHT22;47555;51.038;6.280;2022-07-29T06:32:54;16.00;99.90
25154;DHT22;47555;51.038;6.280;2022-07-29T06:35:20;16.10;99.90
25154;DHT22;47555;51.038;6.280;2022-07-29T06:37:45;16.10;99.90
25154;DHT22;47555;51.038;6.280;2022-07-29T06:40:11;16.10;99.90
25154;DHT22;47555;51.038;6.280;2022-07-29T06:42:55;16.10;99.90
25154;DHT22;47555;51.038;6.280;2022-07-29T06:45:20;16.10;99.90
25154;DHT22;47555;51.038;6.280;2022-07-29T06:47:46;16.10;99.90
25154;DHT22;47555;51.038;6.280;2022-07-29T06:50:11;16.10;99.90
25154;DHT22;47555;51.038;6.280;2022-07-29T06:52:38;16.10;99.90
25154;DHT22;47555;51.038;6.280;2022-07-29T06:55:04;16.10;99.90
25154;DHT22;47555;51.038;6.280;2022-07-29T06:57:30;16.10;99.90
25154;DHT22;47555;51.038;6.280;2022-07-29T06:59:58;16.10;99.90
25154;DHT22;47555;51.038;6.280;2022-07-29T07:02:24;16.20;99.90
25154;DHT22;47555;51.038;6.280;2022-07-29T07:04:50;16.20;99.90
25154;DHT22;47555;51.038;6.280;2022-07-29T07:07:15;16.20;99.90
25154;DHT22;47555;51.038;6.280;2022-07-29T07:09:41;16.20;99.90
25154;DHT22;47555;51.038;6.280;2022-07-29T07:12:07;16.30;99.90
25154;DHT22;47555;51.038;6.280;2022-07-29T07:14:32;16.30;99.90
25154;DHT22;47555;51.038;6.280;2022-07-29T07:16:58;16.40;99.90
25154;DHT22;47555;51.038;6.280;2022-07-29T07:19:25;16.40;99.90
25154;DHT22;47555;51.038;6.280;2022-07-29T07:21:52;16.50;99.90
25154;DHT22;47555;51.038;6.280;2022-07-29T07:24:18;16.50;99.90
25154;DHT22;47555;51.038;6.280;2022-07-29T07:26:44;16.50;99.90
25154;DHT22;47555;51.038;6.280;2022-07-29T07:29:09;16.60;99.90
25154;DHT22;47555;51.038;6.280;2022-07-29T07:31:36;16.60;99.90
25154;DHT22;47555;51.038;6.280;2022-07-29T07:34:02;16.60;99.90
25154;DHT22;47555;51.038;6.280;2022-07-29T07:36:27;16.60;99.90
25154;DHT22;47555;51.038;6.280;2022-07-29T07:38:53;16.70;99.90
25154;DHT22;47555;51.038;6.280;2022-07-29T07:41:18;16.70;99.90
25154;DHT22;47555;51.038;6.280;2022-07-29T07:43:44;16.70;99.90
25154;DHT22;47555;51.038;6.280;2022-07-29T07:46:09;16.70;99.90
25154;DHT22;47555;51.038;6.280;2022-07-29T07:48:35;16.70;99.90
25154;DHT22;47555;51.038;6.280;2022-07-29T07:51:01;16.70;99.90
25154;DHT22;47555;51.038;6.280;2022-07-29T07:53:26;16.80;99.90
25154;DHT22;47555;51.038;6.280;2022-07-29T07:55:52;16.80;99.90
25154;DHT22;47555;51.038;6.280;2022-07-29T07:58:18;16.80;99.90
25154;DHT22;47555;51.038;6.280;2022-07-29T08:00:43;16.80;99.90
25154;DHT22;47555;51.038;6.280;2022-07-29T08:03:09;16.90;99.90
25154;DHT22;47555;51.038;6.280;2022-07-29T08:05:38;16.90;99.90
25154;DHT22;47555;51.038;6.280;2022-07-29T08:08:03;16.90;99.90
25154;DHT22;47555;51.038;6.280;2022-07-29T08:10:29;17.00;99.90
25154;DHT22;47555;51.038;6.280;2022-07-29T08:13:13;17.10;99.90
25154;DHT22;47555;51.038;6.280;2022-07-29T08:15:39;17.20;99.90
25154;DHT22;47555;51.038;6.280;2022-07-29T08:18:06;17.30;99.90
25154;DHT22;47555;51.038;6.280;2022-07-29T08:20:32;17.40;99.90
25154;DHT22;47555;51.038;6.280;2022-07-29T08:23:01;17.50;99.90
25154;DHT22;47555;51.038;6.280;2022-07-29T08:25:27;17.80;99.90
25154;DHT22;47555;51.038;6.280;2022-07-29T08:27:53;18.10;99.90
25154;DHT22;47555;51.038;6.280;2022-07-29T08:30:18;18.40;99.90
25154;DHT22;47555;51.038;6.280;2022-07-29T08:32:44;18.60;99.90
25154;DHT22;47555;51.038;6.280;2022-07-29T08:35:09;18.90;99.90
25154;DHT22;47555;51.038;6.280;2022-07-29T08:37:35;19.30;99.90
25154;DHT22;47555;51.038;6.280;2022-07-29T08:40:00;19.70;99.90
25154;DHT22;47555;51.038;6.280;2022-07-29T08:42:26;20.10;99.90
25154;DHT22;47555;51.038;6.280;2022-07-29T08:44:52;20.40;99.90
25154;DHT22;47555;51.038;6.280;2022-07-29T08:47:19;20.70;99.90
25154;DHT22;47555;51.038;6.280;2022-07-29T08:49:44;20.90;97.80
25154;DHT22;47555;51.038;6.280;2022-07-29T08:52:12;21.10;93.70
25154;DHT22;47555;51.038;6.280;2022-07-29T08:54:39;21.30;95.20
25154;DHT22;47555;51.038;6.280;2022-07-29T08:57:06;21.60;94.90
25154;DHT22;47555;51.038;6.280;2022-07-29T08:59:33;21.70;92.80
25154;DHT22;47555;51.038;6.280;2022-07-29T09:02:00;22.00;90.70
25154;DHT22;47555;51.038;6.280;2022-07-29T09:04:30;22.20;86.00
25154;DHT22;47555;51.038;6.280;2022-07-29T09:07:00;22.40;81.00
25154;DHT22;47555;51.038;6.280;2022-07-29T09:09:29;22.50;88.60
25154;DHT22;47555;51.038;6.280;2022-07-29T09:11:54;22.80;83.70
25154;DHT22;47555;51.038;6.280;2022-07-29T09:14:20;22.90;81.90
25154;DHT22;47555;51.038;6.280;2022-07-29T09:16:55;23.20;78.00
25154;DHT22;47555;51.038;6.280;2022-07-29T09:19:29;23.30;77.70
25154;DHT22;47555;51.038;6.280;2022-07-29T09:21:57;23.50;76.40
25154;DHT22;47555;51.038;6.280;2022-07-29T09:24:23;23.60;70.60
25154;DHT22;47555;51.038;6.280;2022-07-29T09:26:49;23.80;71.70
25154;DHT22;47555;51.038;6.280;2022-07-29T09:31:46;24.20;70.90
25154;DHT22;47555;51.038;6.280;2022-07-29T09:34:15;24.40;66.00
25154;DHT22;47555;51.038;6.280;2022-07-29T09:36:43;24.30;60.10
25154;DHT22;47555;51.038;6.280;2022-07-29T09:39:10;24.10;60.00
25154;DHT22;47555;51.038;6.280;2022-07-29T09:41:51;23.90;61.30
25154;DHT22;47555;51.038;6.280;2022-07-29T09:44:21;23.60;57.70
25154;DHT22;47555;51.038;6.280;2022-07-29T09:46:59;23.30;57.50
25154;DHT22;47555;51.038;6.280;2022-07-29T09:49:31;23.10;60.50
25154;DHT22;47555;51.038;6.280;2022-07-29T09:52:05;22.90;55.40
25154;DHT22;47555;51.038;6.280;2022-07-29T09:54:31;22.80;58.10
25154;DHT22;47555;51.038;6.280;2022-07-29T09:57:09;22.60;58.00
25154;DHT22;47555;51.038;6.280;2022-07-29T10:00:15;22.40;57.20
25154;DHT22;47555;51.038;6.280;2022-07-29T10:02:43;22.30;60.30
25154;DHT22;47555;51.038;6.280;2022-07-29T10:05:23;22.20;62.60
25154;DHT22;47555;51.038;6.280;2022-07-29T10:07:55;22.10;64.50
25154;DHT22;47555;51.038;6.280;2022-07-29T10:10:23;22.10;67.30
25154;DHT22;47555;51.038;6.280;2022-07-29T10:15:26;22.10;67.80
25154;DHT22;47555;51.038;6.280;2022-07-29T10:17:53;22.00;66.70
25154;DHT22;47555;51.038;6.280;2022-07-29T10:20:19;22.00;65.60
25154;DHT22;47555;51.038;6.280;2022-07-29T10:22:46;21.90;67.10
25154;DHT22;47555;51.038;6.280;2022-07-29T10:25:14;21.90;67.60
25154;DHT22;47555;51.038;6.280;2022-07-29T10:27:39;21.80;68.00
25154;DHT22;47555;51.038;6.280;2022-07-29T10:30:06;21.80;68.00
25154;DHT22;47555;51.038;6.280;2022-07-29T10:32:54;21.80;67.60
25154;DHT22;47555;51.038;6.280;2022-07-29T10:44:17;21.60;67.00
25154;DHT22;47555;51.038;6.280;2022-07-29T10:46:44;21.60;66.90
25154;DHT22;47555;51.038;6.280;2022-07-29T10:49:19;21.60;69.30
25154;DHT22;47555;51.038;6.280;2022-07-29T10:52:04;21.60;71.10
25154;DHT22;47555;51.038;6.280;2022-07-29T10:57:19;21.80;70.20
25154;DHT22;47555;51.038;6.280;2022-07-29T11:07:23;23.10;63.00
25154;DHT22;47555;51.038;6.280;2022-07-29T11:15:06;23.80;51.40
25154;DHT22;47555;51.038;6.280;2022-07-29T11:20:40;24.20;54.50
25154;DHT22;47555;51.038;6.280;2022-07-29T11:23:29;24.50;54.40
25154;DHT22;47555;51.038;6.280;2022-07-29T11:31:17;24.90;53.80
25154;DHT22;47555;51.038;6.280;2022-07-29T11:33:45;25.00;51.10
25154;DHT22;47555;51.038;6.280;2022-07-29T11:36:14;25.10;50.20
25154;DHT22;47555;51.038;6.280;2022-07-29T11:38:40;25.20;48.90
25154;DHT22;47555;51.038;6.280;2022-07-29T11:41:25;25.30;47.80
25154;DHT22;47555;51.038;6.280;2022-07-29T11:43:54;25.50;46.70
25154;DHT22;47555;51.038;6.280;2022-07-29T11:46:52;25.50;42.80
25154;DHT22;47555;51.038;6.280;2022-07-29T11:49:25;25.60;44.50
25154;DHT22;47555;51.038;6.280;2022-07-29T11:51:56;25.60;45.10
25154;DHT22;47555;51.038;6.280;2022-07-29T11:54:42;25.60;44.00
25154;DHT22;47555;51.038;6.280;2022-07-29T11:57:08;25.70;41.50
25154;DHT22;47555;51.038;6.280;2022-07-29T11:59:39;25.60;43.60
25154;DHT22;47555;51.038;6.280;2022-07-29T12:02:07;25.60;41.30
25154;DHT22;47555;51.038;6.280;2022-07-29T12:04:33;25.70;42.00
25154;DHT22;47555;51.038;6.280;2022-07-29T12:06:59;25.80;40.90
25154;DHT22;47555;51.038;6.280;2022-07-29T12:09:25;25.80;40.50
25154;DHT22;47555;51.038;6.280;2022-07-29T12:11:57;25.90;40.80
25154;DHT22;47555;51.038;6.280;2022-07-29T12:16:51;26.00;41.70
25154;DHT22;47555;51.038;6.280;2022-07-29T12:19:17;26.10;42.00
25154;DHT22;47555;51.038;6.280;2022-07-29T12:21:54;26.20;42.70
25154;DHT22;47555;51.038;6.280;2022-07-29T12:24:20;26.30;42.00
25154;DHT22;47555;51.038;6.280;2022-07-29T12:26:56;26.50;39.90
25154;DHT22;47555;51.038;6.280;2022-07-29T12:29:22;26.50;38.90
25154;DHT22;47555;51.038;6.280;2022-07-29T12:31:52;26.60;38.70
25154;DHT22;47555;51.038;6.280;2022-07-29T12:34:21;26.60;36.70
25154;DHT22;47555;51.038;6.280;2022-07-29T12:36:48;26.70;37.80
25154;DHT22;47555;51.038;6.280;2022-07-29T12:39:16;26.70;38.00
25154;DHT22;47555;51.038;6.280;2022-07-29T12:41:43;26.80;37.00
25154;DHT22;47555;51.038;6.280;2022-07-29T12:44:09;26.90;35.90
25154;DHT22;47555;51.038;6.280;2022-07-29T12:46:35;27.00;35.90
25154;DHT22;47555;51.038;6.280;2022-07-29T12:49:00;27.00;35.40
25154;DHT22;47555;51.038;6.280;2022-07-29T12:54:22;27.20;36.20
25154;DHT22;47555;51.038;6.280;2022-07-29T12:56:58;27.30;35.00
25154;DHT22;47555;51.038;6.280;2022-07-29T12:59:24;27.30;32.00
25154;DHT22;47555;51.038;6.280;2022-07-29T13:01:51;27.30;32.00
25154;DHT22;47555;51.038;6.280;2022-07-29T13:04:31;27.30;32.40
25154;DHT22;47555;51.038;6.280;2022-07-29T13:07:04;27.30;31.80
25154;DHT22;47555;51.038;6.280;2022-07-29T13:12:09;27.10;32.50
25154;DHT22;47555;51.038;6.280;2022-07-29T13:14:39;27.10;32.30
25154;DHT22;47555;51.038;6.280;2022-07-29T13:17:06;27.30;31.80
25154;DHT22;47555;51.038;6.280;2022-07-29T13:19:44;27.40;31.20
25154;DHT22;47555;51.038;6.280;2022-07-29T13:22:12;27.40;30.10
25154;DHT22;47555;51.038;6.280;2022-07-29T13:24:52;27.50;29.10
25154;DHT22;47555;51.038;6.280;2022-07-29T13:27:20;27.50;29.80
25154;DHT22;47555;51.038;6.280;2022-07-29T13:29:46;27.50;30.60
25154;DHT22;47555;51.038;6.280;2022-07-29T13:32:12;27.50;29.00
25154;DHT22;47555;51.038;6.280;2022-07-29T13:34:38;27.50;28.70
25154;DHT22;47555;51.038;6.280;2022-07-29T13:37:04;27.50;29.20
25154;DHT22;47555;51.038;6.280;2022-07-29T13:39:29;27.60;29.40
25154;DHT22;47555;51.038;6.280;2022-07-29T13:41:55;27.50;30.00
25154;DHT22;47555;51.038;6.280;2022-07-29T13:44:21;27.60;28.30
25154;DHT22;47555;51.038;6.280;2022-07-29T13:46:46;27.60;28.00
25154;DHT22;47555;51.038;6.280;2022-07-29T13:49:12;27.60;28.00
25154;DHT22;47555;51.038;6.280;2022-07-29T13:51:38;27.60;28.20
25154;DHT22;47555;51.038;6.280;2022-07-29T13:54:04;27.60;28.10
25154;DHT22;47555;51.038;6.280;2022-07-29T13:56:29;27.60;28.60
25154;DHT22;47555;51.038;6.280;2022-07-29T13:58:55;27.70;28.30
25154;DHT22;47555;51.038;6.280;2022-07-29T14:01:20;27.70;28.30
25154;DHT22;47555;51.038;6.280;2022-07-29T14:03:46;27.70;27.40
25154;DHT22;47555;51.038;6.280;2022-07-29T14:06:12;27.70;27.40
25154;DHT22;47555;51.038;6.280;2022-07-29T14:08:38;27.60;28.80
25154;DHT22;47555;51.038;6.280;2022-07-29T14:11:04;27.50;28.80
25154;DHT22;47555;51.038;6.280;2022-07-29T14:13:29;27.60;28.50
25154;DHT22;47555;51.038;6.280;2022-07-29T14:15:55;27.60;28.60
25154;DHT22;47555;51.038;6.280;2022-07-29T14:18:20;27.70;28.30
25154;DHT22;47555;51.038;6.280;2022-07-29T14:20:46;27.80;27.20
25154;DHT22;47555;51.038;6.280;2022-07-29T14:23:11;27.90;27.80
25154;DHT22;47555;51.038;6.280;2022-07-29T14:25:37;27.90;25.50
25154;DHT22;47555;51.038;6.280;2022-07-29T14:28:03;27.80;27.00
25154;DHT22;47555;51.038;6.280;2022-07-29T14:30:28;27.70;26.60
25154;DHT22;47555;51.038;6.280;2022-07-29T14:32:54;27.70;27.60
25154;DHT22;47555;51.038;6.280;2022-07-29T14:35:19;27.50;27.20
25154;DHT22;47555;51.038;6.280;2022-07-29T14:37:45;27.30;28.20
25154;DHT22;47555;51.038;6.280;2022-07-29T14:40:11;27.30;28.70
25154;DHT22;47555;51.038;6.280;2022-07-29T14:42:37;27.30;29.50
25154;DHT22;47555;51.038;6.280;2022-07-29T14:45:05;27.30;29.40
25154;DHT22;47555;51.038;6.280;2022-07-29T14:47:31;27.30;29.00
25154;DHT22;47555;51.038;6.280;2022-07-29T14:49:56;27.30;29.60
25154;DHT22;47555;51.038;6.280;2022-07-29T14:52:22;27.40;30.40
25154;DHT22;47555;51.038;6.280;2022-07-29T14:54:47;27.40;29.80
25154;DHT22;47555;51.038;6.280;2022-07-29T14:57:13;27.30;29.10
25154;DHT22;47555;51.038;6.280;2022-07-29T14:59:38;27.30;29.20
25154;DHT22;47555;51.038;6.280;2022-07-29T15:02:04;27.30;29.50
25154;DHT22;47555;51.038;6.280;2022-07-29T15:04:30;27.40;30.20
25154;DHT22;47555;51.038;6.280;2022-07-29T15:06:55;27.40;29.80
25154;DHT22;47555;51.038;6.280;2022-07-29T15:09:21;27.40;30.20
25154;DHT22;47555;51.038;6.280;2022-07-29T15:11:46;27.60;30.20
25154;DHT22;47555;51.038;6.280;2022-07-29T15:14:12;27.60;29.40
25154;DHT22;47555;51.038;6.280;2022-07-29T15:16:38;27.70;29.00
25154;DHT22;47555;51.038;6.280;2022-07-29T15:19:05;27.70;29.20
25154;DHT22;47555;51.038;6.280;2022-07-29T15:21:31;27.60;29.10
25154;DHT22;47555;51.038;6.280;2022-07-29T15:23:56;27.60;28.60
25154;DHT22;47555;51.038;6.280;2022-07-29T15:26:22;27.60;29.40
25154;DHT22;47555;51.038;6.280;2022-07-29T15:28:47;27.60;29.70
25154;DHT22;47555;51.038;6.280;2022-07-29T15:31:13;27.60;29.70
25154;DHT22;47555;51.038;6.280;2022-07-29T15:33:39;27.60;30.20
25154;DHT22;47555;51.038;6.280;2022-07-29T15:36:05;27.60;30.60
25154;DHT22;47555;51.038;6.280;2022-07-29T15:38:31;27.50;30.50
25154;DHT22;47555;51.038;6.280;2022-07-29T15:40:56;27.50;30.50
25154;DHT22;47555;51.038;6.280;2022-07-29T15:43:22;27.60;30.80
25154;DHT22;47555;51.038;6.280;2022-07-29T15:45:48;27.60;30.70
25154;DHT22;47555;51.038;6.280;2022-07-29T15:48:32;27.60;30.60
25154;DHT22;47555;51.038;6.280;2022-07-29T15:50:59;27.70;30.60
25154;DHT22;47555;51.038;6.280;2022-07-29T15:53:25;27.70;30.60
25154;DHT22;47555;51.038;6.280;2022-07-29T15:55:51;27.60;29.80
25154;DHT22;47555;51.038;6.280;2022-07-29T15:58:16;27.50;29.70
25154;DHT22;47555;51.038;6.280;2022-07-29T16:00:42;27.40;29.60
25154;DHT22;47555;51.038;6.280;2022-07-29T16:03:08;27.30;29.70
25154;DHT22;47555;51.038;6.280;2022-07-29T16:05:33;27.20;30.40
25154;DHT22;47555;51.038;6.280;2022-07-29T16:07:59;27.10;30.60
25154;DHT22;47555;51.038;6.280;2022-07-29T16:10:25;27.00;30.40
25154;DHT22;47555;51.038;6.280;2022-07-29T16:12:50;27.10;31.10
25154;DHT22;47555;51.038;6.280;2022-07-29T16:15:16;27.10;30.70
25154;DHT22;47555;51.038;6.280;2022-07-29T16:17:41;27.20;31.10
25154;DHT22;47555;51.038;6.280;2022-07-29T16:20:07;27.20;30.50
25154;DHT22;47555;51.038;6.280;2022-07-29T16:22:33;27.20;30.60
25154;DHT22;47555;51.038;6.280;2022-07-29T16:24:59;27.20;30.10
25154;DHT22;47555;51.038;6.280;2022-07-29T16:27:24;27.10;30.60
25154;DHT22;47555;51.038;6.280;2022-07-29T16:29:53;27.00;30.60
25154;DHT22;47555;51.038;6.280;2022-07-29T16:32:20;26.90;28.70
25154;DHT22;47555;51.038;6.280;2022-07-29T16:34:45;26.90;29.00